Mason, MI

6:05 AM EST on February 08, 2016 (GMT -0500)
Mason Jewett | | Change Station
CLOSE
Current Station
Airport
Location: Mason,
Elevation: 919 ft
Nearby Weather Stations

Elev 919 ft 42.57 °N, 84.42 °W | Updated 12 minutes ago

Overcast
Overcast
32 °F
Feels Like 32 °F
N
0
Wind Variable Wind from North

Today
High -- | Low -- °F
--% Chance of Precip.
Yesterday
High -- | Low -- °F
Precip. -- in
Pressure 29.61 in
Visibility 10.0 miles
Clouds Overcast 11000 ft
Dew Point 29 °F
Humidity 90%
Rainfall 0.00 in
Snow Depth Not available.
7:44 AM 5:59 PM
Waning Crescent, 0% visible
METAR KTEW 081053Z AUTO 00000KT 10SM OVC110 00/M02 A2961 RMK AO2 T10011016
Pressure 29.61 in
Visibility 10.0 miles
Clouds Overcast 11000 ft
Dew Point 29 °F
Humidity 90%
Rainfall 0.00 in
Snow Depth Not available.
7:44 AM 5:59 PM
Waning Crescent, 0% visible
METAR KTEW 081053Z AUTO 00000KT 10SM OVC110 00/M02 A2961 RMK AO2 T10011016

10-Day Weather Forecast

Almanac

Astronomy

Feb. 08, 2016 Rise Set
Actual Time
Civil Twilight
Nautical Twilight
Astronomical Twilight
Moon
Length of Visible Light
Length of Day
Tomorrow will be .
, % of the Moon is Illuminated

Today's Extremes

State Highs State Lows

Community

WunderPhotos

Upload Photos

1,891,420 photos uploaded!

WunderBlog® & News

Nearby

Air Quality

  Air Quality AQ Index Pollutant
Not available.

Snow Depth

Station Depth Elevation

Earthquake Activity

City Distance Mag. Time & Date
Minimum magnitude displayed is 2.5.

Coastal Water Temperatures

Place Temperature

Stations

Nearby Weather Stations

Station Location Temp. Windchill Dew Point Humidity Wind Precip. Elev Updated Type
                   

Watches & Warnings

There are currently no watches in effect.